Atwater, Illinois
Current Conditions -  °F | °C
As of 2:35 AM on Friday 31 Oct 2014 (Local Time) from K3LF Reporting Station
Haze Haze  
Wind Chill: 39°   Ceiling: Unl
Heat Index: 43°   Visibility: 5mi
Dew Point: 41°   Wind: 8mph
Humidity: 93%   Direction: 350°N
Pressure: 30.07"   Gusts: NA
Location:  39.33°N, 89.72°W
Report Text: K3LF 310735Z AUTO 35007KT 5SM BR SCT034 06/05 A3007 RMK AO2 T00630052
Loading
Personal Weather Stations






























Interactive Weather Map
Tropical Storm Tracking
New forecast layout! Learn more

10-Day Weather Forecast

Advertisements
Track Severe Weather on mobile